sensor_id;sensor_type;location;lat;lon;timestamp;P1;durP1;ratioP1;P2;durP2;ratioP2
59685;SDS011;45554;51.096;16.976;2024-01-16T00:02:11;10.00;;;6.70;;
59685;SDS011;45554;51.096;16.976;2024-01-16T00:04:38;9.90;;;7.10;;
59685;SDS011;45554;51.096;16.976;2024-01-16T00:07:08;9.70;;;6.30;;
59685;SDS011;45554;51.096;16.976;2024-01-16T00:09:36;8.90;;;6.00;;
59685;SDS011;45554;51.096;16.976;2024-01-16T00:12:04;10.30;;;6.50;;
59685;SDS011;45554;51.096;16.976;2024-01-16T00:14:36;10.20;;;6.30;;
59685;SDS011;45554;51.096;16.976;2024-01-16T00:17:05;9.70;;;7.00;;
59685;SDS011;45554;51.096;16.976;2024-01-16T00:19:33;9.70;;;6.70;;
59685;SDS011;45554;51.096;16.976;2024-01-16T00:22:03;10.10;;;6.20;;
59685;SDS011;45554;51.096;16.976;2024-01-16T00:24:33;10.20;;;6.20;;
59685;SDS011;45554;51.096;16.976;2024-01-16T00:27:01;10.70;;;6.30;;
59685;SDS011;45554;51.096;16.976;2024-01-16T00:29:28;7.80;;;4.50;;
59685;SDS011;45554;51.096;16.976;2024-01-16T00:31:58;4.40;;;2.20;;
59685;SDS011;45554;51.096;16.976;2024-01-16T00:34:26;6.10;;;1.90;;
59685;SDS011;45554;51.096;16.976;2024-01-16T00:36:54;4.60;;;1.90;;
59685;SDS011;45554;51.096;16.976;2024-01-16T00:39:22;4.50;;;2.00;;
59685;SDS011;45554;51.096;16.976;2024-01-16T00:41:50;3.50;;;2.00;;
59685;SDS011;45554;51.096;16.976;2024-01-16T00:44:18;5.10;;;2.10;;
59685;SDS011;45554;51.096;16.976;2024-01-16T00:46:47;7.20;;;2.30;;
59685;SDS011;45554;51.096;16.976;2024-01-16T00:49:14;7.10;;;2.20;;
59685;SDS011;45554;51.096;16.976;2024-01-16T00:51:46;6.10;;;2.40;;
59685;SDS011;45554;51.096;16.976;2024-01-16T00:54:15;6.40;;;2.50;;
59685;SDS011;45554;51.096;16.976;2024-01-16T00:56:42;6.40;;;2.30;;
59685;SDS011;45554;51.096;16.976;2024-01-16T00:59:10;10.00;;;2.50;;
59685;SDS011;45554;51.096;16.976;2024-01-16T01:01:40;6.30;;;2.30;;
59685;SDS011;45554;51.096;16.976;2024-01-16T01:04:07;7.10;;;2.70;;
59685;SDS011;45554;51.096;16.976;2024-01-16T01:06:35;8.50;;;2.80;;
59685;SDS011;45554;51.096;16.976;2024-01-16T01:09:04;7.10;;;2.80;;
59685;SDS011;45554;51.096;16.976;2024-01-16T01:11:32;7.40;;;2.90;;
59685;SDS011;45554;51.096;16.976;2024-01-16T01:14:00;7.80;;;3.10;;
59685;SDS011;45554;51.096;16.976;2024-01-16T01:16:28;8.00;;;3.40;;
59685;SDS011;45554;51.096;16.976;2024-01-16T01:18:56;8.60;;;3.40;;
59685;SDS011;45554;51.096;16.976;2024-01-16T01:21:23;8.10;;;3.50;;
59685;SDS011;45554;51.096;16.976;2024-01-16T01:23:52;9.40;;;3.80;;
59685;SDS011;45554;51.096;16.976;2024-01-16T01:26:20;10.10;;;3.80;;
59685;SDS011;45554;51.096;16.976;2024-01-16T01:28:50;7.80;;;3.70;;
59685;SDS011;45554;51.096;16.976;2024-01-16T01:31:20;7.50;;;3.70;;
59685;SDS011;45554;51.096;16.976;2024-01-16T01:33:47;8.20;;;3.70;;
59685;SDS011;45554;51.096;16.976;2024-01-16T01:36:15;8.50;;;3.40;;
59685;SDS011;45554;51.096;16.976;2024-01-16T01:38:44;10.60;;;4.30;;
59685;SDS011;45554;51.096;16.976;2024-01-16T01:41:12;10.00;;;3.60;;
59685;SDS011;45554;51.096;16.976;2024-01-16T01:43:40;7.90;;;3.60;;
59685;SDS011;45554;51.096;16.976;2024-01-16T01:46:16;8.70;;;3.50;;
59685;SDS011;45554;51.096;16.976;2024-01-16T01:48:46;8.50;;;3.40;;
59685;SDS011;45554;51.096;16.976;2024-01-16T01:51:19;8.50;;;3.20;;
59685;SDS011;45554;51.096;16.976;2024-01-16T01:53:48;7.00;;;3.20;;
59685;SDS011;45554;51.096;16.976;2024-01-16T01:56:19;8.70;;;4.00;;
59685;SDS011;45554;51.096;16.976;2024-01-16T01:58:49;9.40;;;4.10;;
59685;SDS011;45554;51.096;16.976;2024-01-16T02:01:21;11.00;;;5.70;;
59685;SDS011;45554;51.096;16.976;2024-01-16T02:03:50;10.90;;;6.30;;
59685;SDS011;45554;51.096;16.976;2024-01-16T02:06:19;9.60;;;6.30;;
59685;SDS011;45554;51.096;16.976;2024-01-16T02:08:48;10.70;;;6.50;;
59685;SDS011;45554;51.096;16.976;2024-01-16T02:11:16;9.70;;;4.80;;
59685;SDS011;45554;51.096;16.976;2024-01-16T02:13:44;10.30;;;4.50;;
59685;SDS011;45554;51.096;16.976;2024-01-16T02:16:19;9.20;;;4.00;;
59685;SDS011;45554;51.096;16.976;2024-01-16T02:18:51;9.90;;;4.00;;
59685;SDS011;45554;51.096;16.976;2024-01-16T02:21:21;9.80;;;3.70;;
59685;SDS011;45554;51.096;16.976;2024-01-16T02:23:50;9.20;;;3.90;;
59685;SDS011;45554;51.096;16.976;2024-01-16T02:26:18;7.70;;;3.40;;
59685;SDS011;45554;51.096;16.976;2024-01-16T02:28:48;8.10;;;3.60;;
59685;SDS011;45554;51.096;16.976;2024-01-16T02:31:15;9.40;;;3.50;;
59685;SDS011;45554;51.096;16.976;2024-01-16T02:33:44;9.10;;;4.20;;
59685;SDS011;45554;51.096;16.976;2024-01-16T02:36:12;9.40;;;3.60;;
59685;SDS011;45554;51.096;16.976;2024-01-16T02:38:41;8.90;;;3.80;;
59685;SDS011;45554;51.096;16.976;2024-01-16T02:41:13;9.30;;;3.90;;
59685;SDS011;45554;51.096;16.976;2024-01-16T02:43:43;11.20;;;4.80;;
59685;SDS011;45554;51.096;16.976;2024-01-16T02:46:12;10.40;;;4.50;;
59685;SDS011;45554;51.096;16.976;2024-01-16T02:48:41;12.40;;;4.30;;
59685;SDS011;45554;51.096;16.976;2024-01-16T02:51:10;9.60;;;4.20;;
59685;SDS011;45554;51.096;16.976;2024-01-16T02:53:38;11.50;;;4.50;;
59685;SDS011;45554;51.096;16.976;2024-01-16T02:56:07;8.70;;;4.30;;
59685;SDS011;45554;51.096;16.976;2024-01-16T02:58:36;8.50;;;4.10;;
59685;SDS011;45554;51.096;16.976;2024-01-16T03:01:05;10.40;;;4.40;;
59685;SDS011;45554;51.096;16.976;2024-01-16T03:03:33;8.90;;;3.60;;
59685;SDS011;45554;51.096;16.976;2024-01-16T03:06:01;10.00;;;4.00;;
59685;SDS011;45554;51.096;16.976;2024-01-16T03:08:29;10.90;;;4.50;;
59685;SDS011;45554;51.096;16.976;2024-01-16T03:10:57;9.60;;;4.70;;
59685;SDS011;45554;51.096;16.976;2024-01-16T03:13:25;8.70;;;3.90;;
59685;SDS011;45554;51.096;16.976;2024-01-16T03:15:53;10.40;;;4.80;;
59685;SDS011;45554;51.096;16.976;2024-01-16T03:18:21;9.00;;;4.20;;
59685;SDS011;45554;51.096;16.976;2024-01-16T03:20:50;9.50;;;3.70;;
59685;SDS011;45554;51.096;16.976;2024-01-16T03:23:18;10.90;;;3.90;;
59685;SDS011;45554;51.096;16.976;2024-01-16T03:25:46;8.20;;;3.90;;
59685;SDS011;45554;51.096;16.976;2024-01-16T03:28:15;8.70;;;4.00;;
59685;SDS011;45554;51.096;16.976;2024-01-16T03:30:42;8.20;;;4.00;;
59685;SDS011;45554;51.096;16.976;2024-01-16T03:33:11;10.40;;;4.20;;
59685;SDS011;45554;51.096;16.976;2024-01-16T03:35:39;9.00;;;3.70;;
59685;SDS011;45554;51.096;16.976;2024-01-16T03:38:07;7.80;;;3.50;;
59685;SDS011;45554;51.096;16.976;2024-01-16T03:40:35;7.70;;;3.50;;
59685;SDS011;45554;51.096;16.976;2024-01-16T03:43:03;8.10;;;3.10;;
59685;SDS011;45554;51.096;16.976;2024-01-16T03:48:01;7.50;;;3.00;;
59685;SDS011;45554;51.096;16.976;2024-01-16T03:50:31;6.30;;;2.60;;
59685;SDS011;45554;51.096;16.976;2024-01-16T03:52:59;7.50;;;3.00;;
59685;SDS011;45554;51.096;16.976;2024-01-16T03:55:27;7.90;;;3.10;;
59685;SDS011;45554;51.096;16.976;2024-01-16T03:57:55;7.00;;;2.80;;
59685;SDS011;45554;51.096;16.976;2024-01-16T04:00:23;8.00;;;3.20;;
59685;SDS011;45554;51.096;16.976;2024-01-16T04:02:51;7.40;;;2.80;;
59685;SDS011;45554;51.096;16.976;2024-01-16T04:05:19;7.40;;;3.20;;
59685;SDS011;45554;51.096;16.976;2024-01-16T04:07:47;5.40;;;2.40;;
59685;SDS011;45554;51.096;16.976;2024-01-16T04:10:15;5.70;;;2.60;;
59685;SDS011;45554;51.096;16.976;2024-01-16T04:12:43;6.80;;;2.90;;
59685;SDS011;45554;51.096;16.976;2024-01-16T04:15:11;5.60;;;2.40;;
59685;SDS011;45554;51.096;16.976;2024-01-16T04:17:39;5.30;;;2.40;;
59685;SDS011;45554;51.096;16.976;2024-01-16T04:20:08;6.70;;;2.70;;
59685;SDS011;45554;51.096;16.976;2024-01-16T04:22:37;7.70;;;2.70;;
59685;SDS011;45554;51.096;16.976;2024-01-16T04:25:05;4.60;;;2.40;;
59685;SDS011;45554;51.096;16.976;2024-01-16T04:27:33;5.70;;;2.20;;
59685;SDS011;45554;51.096;16.976;2024-01-16T04:30:01;7.00;;;2.70;;
59685;SDS011;45554;51.096;16.976;2024-01-16T04:32:30;6.00;;;2.30;;
59685;SDS011;45554;51.096;16.976;2024-01-16T04:34:59;6.80;;;2.50;;
59685;SDS011;45554;51.096;16.976;2024-01-16T04:37:27;5.80;;;2.80;;
59685;SDS011;45554;51.096;16.976;2024-01-16T04:39:55;7.40;;;3.10;;
59685;SDS011;45554;51.096;16.976;2024-01-16T04:42:26;7.70;;;2.60;;
59685;SDS011;45554;51.096;16.976;2024-01-16T04:44:54;7.10;;;3.00;;
59685;SDS011;45554;51.096;16.976;2024-01-16T04:47:22;6.60;;;2.80;;
59685;SDS011;45554;51.096;16.976;2024-01-16T04:49:50;8.50;;;3.50;;
59685;SDS011;45554;51.096;16.976;2024-01-16T04:52:18;7.70;;;3.40;;
59685;SDS011;45554;51.096;16.976;2024-01-16T04:54:46;8.40;;;3.50;;
59685;SDS011;45554;51.096;16.976;2024-01-16T04:57:15;7.70;;;3.00;;
59685;SDS011;45554;51.096;16.976;2024-01-16T04:59:42;6.20;;;3.20;;
59685;SDS011;45554;51.096;16.976;2024-01-16T05:02:10;7.10;;;3.20;;
59685;SDS011;45554;51.096;16.976;2024-01-16T05:04:39;8.60;;;3.20;;
59685;SDS011;45554;51.096;16.976;2024-01-16T05:07:07;7.60;;;3.40;;
59685;SDS011;45554;51.096;16.976;2024-01-16T05:09:35;6.40;;;2.70;;
59685;SDS011;45554;51.096;16.976;2024-01-16T05:12:03;7.50;;;2.90;;
59685;SDS011;45554;51.096;16.976;2024-01-16T05:14:32;5.50;;;2.80;;
59685;SDS011;45554;51.096;16.976;2024-01-16T05:16:59;7.60;;;3.00;;
59685;SDS011;45554;51.096;16.976;2024-01-16T05:19:28;6.70;;;3.40;;
59685;SDS011;45554;51.096;16.976;2024-01-16T05:21:56;6.80;;;3.50;;
59685;SDS011;45554;51.096;16.976;2024-01-16T05:24:24;6.50;;;3.30;;
59685;SDS011;45554;51.096;16.976;2024-01-16T05:26:52;7.40;;;3.00;;
59685;SDS011;45554;51.096;16.976;2024-01-16T05:29:20;8.30;;;3.80;;
59685;SDS011;45554;51.096;16.976;2024-01-16T05:31:49;6.80;;;3.20;;
59685;SDS011;45554;51.096;16.976;2024-01-16T05:34:18;8.10;;;3.90;;
59685;SDS011;45554;51.096;16.976;2024-01-16T05:36:46;8.20;;;3.90;;
59685;SDS011;45554;51.096;16.976;2024-01-16T05:39:14;8.90;;;3.80;;
59685;SDS011;45554;51.096;16.976;2024-01-16T05:41:42;10.30;;;4.20;;
59685;SDS011;45554;51.096;16.976;2024-01-16T05:44:10;6.50;;;3.70;;
59685;SDS011;45554;51.096;16.976;2024-01-16T05:46:38;8.20;;;3.60;;
59685;SDS011;45554;51.096;16.976;2024-01-16T05:49:06;10.40;;;4.10;;
59685;SDS011;45554;51.096;16.976;2024-01-16T05:51:34;9.90;;;4.20;;
59685;SDS011;45554;51.096;16.976;2024-01-16T05:54:02;9.10;;;4.40;;
59685;SDS011;45554;51.096;16.976;2024-01-16T05:56:31;10.70;;;4.50;;
59685;SDS011;45554;51.096;16.976;2024-01-16T05:58:59;6.60;;;4.00;;
59685;SDS011;45554;51.096;16.976;2024-01-16T06:01:27;10.20;;;4.60;;
59685;SDS011;45554;51.096;16.976;2024-01-16T06:03:55;8.30;;;4.20;;
59685;SDS011;45554;51.096;16.976;2024-01-16T06:06:23;8.40;;;4.50;;
59685;SDS011;45554;51.096;16.976;2024-01-16T06:08:51;8.70;;;4.50;;
59685;SDS011;45554;51.096;16.976;2024-01-16T06:11:29;9.80;;;4.90;;
59685;SDS011;45554;51.096;16.976;2024-01-16T06:13:58;12.10;;;5.00;;
59685;SDS011;45554;51.096;16.976;2024-01-16T06:18:55;9.90;;;4.30;;
59685;SDS011;45554;51.096;16.976;2024-01-16T06:21:23;8.90;;;4.40;;
59685;SDS011;45554;51.096;16.976;2024-01-16T06:23:52;7.10;;;3.30;;
59685;SDS011;45554;51.096;16.976;2024-01-16T06:26:20;8.80;;;3.50;;
59685;SDS011;45554;51.096;16.976;2024-01-16T06:28:49;7.40;;;3.30;;
59685;SDS011;45554;51.096;16.976;2024-01-16T06:31:17;6.80;;;3.50;;
59685;SDS011;45554;51.096;16.976;2024-01-16T06:33:48;7.80;;;3.20;;
59685;SDS011;45554;51.096;16.976;2024-01-16T06:36:16;8.20;;;3.30;;
59685;SDS011;45554;51.096;16.976;2024-01-16T06:38:45;6.60;;;3.30;;
59685;SDS011;45554;51.096;16.976;2024-01-16T06:41:13;7.20;;;3.50;;
59685;SDS011;45554;51.096;16.976;2024-01-16T06:43:41;8.40;;;4.10;;
59685;SDS011;45554;51.096;16.976;2024-01-16T06:46:09;10.20;;;4.20;;
59685;SDS011;45554;51.096;16.976;2024-01-16T06:48:37;7.90;;;4.10;;
59685;SDS011;45554;51.096;16.976;2024-01-16T06:51:06;8.70;;;4.30;;
59685;SDS011;45554;51.096;16.976;2024-01-16T06:53:36;8.90;;;4.40;;
59685;SDS011;45554;51.096;16.976;2024-01-16T06:56:06;7.20;;;3.60;;
59685;SDS011;45554;51.096;16.976;2024-01-16T06:58:35;7.30;;;3.30;;
59685;SDS011;45554;51.096;16.976;2024-01-16T07:01:03;8.20;;;3.70;;
59685;SDS011;45554;51.096;16.976;2024-01-16T07:03:31;6.60;;;3.10;;
59685;SDS011;45554;51.096;16.976;2024-01-16T07:06:01;6.30;;;2.80;;
59685;SDS011;45554;51.096;16.976;2024-01-16T07:08:31;7.40;;;2.80;;
59685;SDS011;45554;51.096;16.976;2024-01-16T07:10:59;6.30;;;3.10;;
59685;SDS011;45554;51.096;16.976;2024-01-16T07:13:27;6.20;;;2.80;;
59685;SDS011;45554;51.096;16.976;2024-01-16T07:15:56;5.90;;;2.90;;
59685;SDS011;45554;51.096;16.976;2024-01-16T07:18:24;7.60;;;3.10;;
59685;SDS011;45554;51.096;16.976;2024-01-16T07:20:52;7.80;;;3.50;;
59685;SDS011;45554;51.096;16.976;2024-01-16T07:23:21;7.70;;;3.40;;
59685;SDS011;45554;51.096;16.976;2024-01-16T07:25:48;6.20;;;3.50;;
59685;SDS011;45554;51.096;16.976;2024-01-16T07:28:16;7.90;;;3.80;;
59685;SDS011;45554;51.096;16.976;2024-01-16T07:30:45;8.20;;;3.50;;
59685;SDS011;45554;51.096;16.976;2024-01-16T07:33:13;6.90;;;3.70;;
59685;SDS011;45554;51.096;16.976;2024-01-16T07:35:41;6.70;;;3.50;;
59685;SDS011;45554;51.096;16.976;2024-01-16T07:38:12;7.00;;;3.30;;
59685;SDS011;45554;51.096;16.976;2024-01-16T07:40:39;6.80;;;3.60;;
59685;SDS011;45554;51.096;16.976;2024-01-16T07:43:07;6.90;;;3.60;;
59685;SDS011;45554;51.096;16.976;2024-01-16T07:45:36;9.50;;;4.50;;
59685;SDS011;45554;51.096;16.976;2024-01-16T07:48:04;9.70;;;5.70;;
59685;SDS011;45554;51.096;16.976;2024-01-16T07:50:34;10.30;;;6.60;;
59685;SDS011;45554;51.096;16.976;2024-01-16T07:53:02;10.20;;;6.70;;
59685;SDS011;45554;51.096;16.976;2024-01-16T07:55:31;10.90;;;7.30;;
59685;SDS011;45554;51.096;16.976;2024-01-16T07:57:58;10.30;;;7.40;;
59685;SDS011;45554;51.096;16.976;2024-01-16T08:00:29;10.10;;;6.80;;
59685;SDS011;45554;51.096;16.976;2024-01-16T08:02:59;9.40;;;6.50;;
59685;SDS011;45554;51.096;16.976;2024-01-16T08:05:28;8.30;;;5.40;;
59685;SDS011;45554;51.096;16.976;2024-01-16T08:07:58;8.20;;;4.70;;
59685;SDS011;45554;51.096;16.976;2024-01-16T08:10:26;8.40;;;4.80;;
59685;SDS011;45554;51.096;16.976;2024-01-16T08:12:54;9.70;;;4.70;;
59685;SDS011;45554;51.096;16.976;2024-01-16T08:15:22;7.70;;;4.60;;
59685;SDS011;45554;51.096;16.976;2024-01-16T08:17:50;8.90;;;5.60;;
59685;SDS011;45554;51.096;16.976;2024-01-16T08:20:18;9.50;;;6.00;;
59685;SDS011;45554;51.096;16.976;2024-01-16T08:22:47;10.60;;;5.80;;
59685;SDS011;45554;51.096;16.976;2024-01-16T08:25:15;9.50;;;6.10;;
59685;SDS011;45554;51.096;16.976;2024-01-16T08:27:43;9.10;;;5.80;;
59685;SDS011;45554;51.096;16.976;2024-01-16T08:32:41;11.90;;;8.20;;
59685;SDS011;45554;51.096;16.976;2024-01-16T08:35:09;12.40;;;7.60;;
59685;SDS011;45554;51.096;16.976;2024-01-16T08:37:38;10.90;;;7.60;;
59685;SDS011;45554;51.096;16.976;2024-01-16T08:40:07;10.90;;;7.70;;
59685;SDS011;45554;51.096;16.976;2024-01-16T08:42:35;11.20;;;7.10;;
59685;SDS011;45554;51.096;16.976;2024-01-16T08:45:04;12.00;;;7.80;;
59685;SDS011;45554;51.096;16.976;2024-01-16T08:47:33;10.60;;;6.70;;
59685;SDS011;45554;51.096;16.976;2024-01-16T08:50:01;11.30;;;7.30;;
59685;SDS011;45554;51.096;16.976;2024-01-16T08:52:30;9.20;;;5.30;;
59685;SDS011;45554;51.096;16.976;2024-01-16T08:54:58;12.00;;;6.50;;
59685;SDS011;45554;51.096;16.976;2024-01-16T08:57:29;9.40;;;6.00;;
59685;SDS011;45554;51.096;16.976;2024-01-16T08:59:57;9.90;;;5.60;;
59685;SDS011;45554;51.096;16.976;2024-01-16T09:02:25;8.80;;;5.30;;
59685;SDS011;45554;51.096;16.976;2024-01-16T09:04:57;10.30;;;5.90;;
59685;SDS011;45554;51.096;16.976;2024-01-16T09:07:26;10.90;;;6.30;;
59685;SDS011;45554;51.096;16.976;2024-01-16T09:09:55;9.20;;;5.90;;
59685;SDS011;45554;51.096;16.976;2024-01-16T09:12:26;11.20;;;6.20;;
59685;SDS011;45554;51.096;16.976;2024-01-16T09:14:54;10.00;;;5.00;;
59685;SDS011;45554;51.096;16.976;2024-01-16T09:17:22;13.10;;;5.20;;
59685;SDS011;45554;51.096;16.976;2024-01-16T09:19:53;15.20;;;6.70;;
59685;SDS011;45554;51.096;16.976;2024-01-16T09:22:21;13.80;;;6.70;;
59685;SDS011;45554;51.096;16.976;2024-01-16T09:24:49;11.10;;;5.70;;
59685;SDS011;45554;51.096;16.976;2024-01-16T09:27:17;9.70;;;6.10;;
59685;SDS011;45554;51.096;16.976;2024-01-16T09:29:46;8.70;;;4.50;;
59685;SDS011;45554;51.096;16.976;2024-01-16T09:32:14;10.70;;;5.50;;
59685;SDS011;45554;51.096;16.976;2024-01-16T09:34:42;12.00;;;6.40;;
59685;SDS011;45554;51.096;16.976;2024-01-16T09:37:10;10.90;;;7.30;;
59685;SDS011;45554;51.096;16.976;2024-01-16T09:39:40;13.20;;;7.40;;
59685;SDS011;45554;51.096;16.976;2024-01-16T09:42:08;10.00;;;5.90;;
59685;SDS011;45554;51.096;16.976;2024-01-16T09:44:37;11.60;;;4.60;;
59685;SDS011;45554;51.096;16.976;2024-01-16T09:47:05;9.00;;;4.50;;
59685;SDS011;45554;51.096;16.976;2024-01-16T09:49:35;8.10;;;4.90;;
59685;SDS011;45554;51.096;16.976;2024-01-16T09:52:09;8.20;;;5.00;;
59685;SDS011;45554;51.096;16.976;2024-01-16T09:54:38;10.20;;;5.10;;
59685;SDS011;45554;51.096;16.976;2024-01-16T09:57:23;9.40;;;5.70;;
59685;SDS011;45554;51.096;16.976;2024-01-16T09:59:57;8.50;;;5.40;;
59685;SDS011;45554;51.096;16.976;2024-01-16T10:02:43;10.80;;;6.10;;
59685;SDS011;45554;51.096;16.976;2024-01-16T10:05:51;9.40;;;6.10;;
59685;SDS011;45554;51.096;16.976;2024-01-16T10:08:59;10.60;;;5.90;;
59685;SDS011;45554;51.096;16.976;2024-01-16T10:11:28;11.50;;;6.40;;
59685;SDS011;45554;51.096;16.976;2024-01-16T10:13:58;9.20;;;6.00;;
59685;SDS011;45554;51.096;16.976;2024-01-16T10:19:23;11.40;;;6.60;;
59685;SDS011;45554;51.096;16.976;2024-01-16T10:22:20;11.40;;;7.60;;
59685;SDS011;45554;51.096;16.976;2024-01-16T10:25:03;11.80;;;7.10;;
59685;SDS011;45554;51.096;16.976;2024-01-16T10:27:39;11.20;;;6.40;;
59685;SDS011;45554;51.096;16.976;2024-01-16T10:30:09;8.80;;;5.00;;
59685;SDS011;45554;51.096;16.976;2024-01-16T10:32:42;6.60;;;3.90;;
59685;SDS011;45554;51.096;16.976;2024-01-16T10:36:07;8.60;;;4.20;;
59685;SDS011;45554;51.096;16.976;2024-01-16T10:39:13;9.50;;;4.40;;
59685;SDS011;45554;51.096;16.976;2024-01-16T10:41:53;7.90;;;3.60;;
59685;SDS011;45554;51.096;16.976;2024-01-16T10:44:41;7.70;;;3.80;;
59685;SDS011;45554;51.096;16.976;2024-01-16T10:48:05;8.20;;;3.70;;
59685;SDS011;45554;51.096;16.976;2024-01-16T10:51:06;8.10;;;3.90;;
59685;SDS011;45554;51.096;16.976;2024-01-16T10:54:21;8.20;;;3.70;;
59685;SDS011;45554;51.096;16.976;2024-01-16T10:56:51;5.70;;;3.10;;
59685;SDS011;45554;51.096;16.976;2024-01-16T10:59:28;6.60;;;2.90;;
59685;SDS011;45554;51.096;16.976;2024-01-16T11:02:19;7.30;;;3.20;;
59685;SDS011;45554;51.096;16.976;2024-01-16T11:04:55;7.30;;;3.40;;
59685;SDS011;45554;51.096;16.976;2024-01-16T11:07:29;6.90;;;3.50;;
59685;SDS011;45554;51.096;16.976;2024-01-16T11:10:01;7.60;;;3.40;;
59685;SDS011;45554;51.096;16.976;2024-01-16T11:12:31;8.00;;;3.90;;
59685;SDS011;45554;51.096;16.976;2024-01-16T11:15:42;6.70;;;2.90;;
59685;SDS011;45554;51.096;16.976;2024-01-16T11:18:58;6.10;;;3.30;;
59685;SDS011;45554;51.096;16.976;2024-01-16T11:22:25;6.50;;;3.20;;
59685;SDS011;45554;51.096;16.976;2024-01-16T11:29:56;7.00;;;3.60;;
59685;SDS011;45554;51.096;16.976;2024-01-16T11:33:06;9.90;;;3.50;;
59685;SDS011;45554;51.096;16.976;2024-01-16T11:47:05;9.00;;;4.20;;
59685;SDS011;45554;51.096;16.976;2024-01-16T11:53:40;9.00;;;4.90;;
59685;SDS011;45554;51.096;16.976;2024-01-16T12:00:51;9.30;;;5.10;;
59685;SDS011;45554;51.096;16.976;2024-01-16T12:04:08;9.60;;;5.00;;
59685;SDS011;45554;51.096;16.976;2024-01-16T12:08:12;8.90;;;6.00;;
59685;SDS011;45554;51.096;16.976;2024-01-16T12:12:36;10.20;;;6.00;;
59685;SDS011;45554;51.096;16.976;2024-01-16T12:15:22;13.30;;;7.00;;
59685;SDS011;45554;51.096;16.976;2024-01-16T12:36:11;13.50;;;7.40;;
59685;SDS011;45554;51.096;16.976;2024-01-16T12:39:53;13.40;;;7.10;;
59685;SDS011;45554;51.096;16.976;2024-01-16T12:43:18;10.70;;;6.90;;
59685;SDS011;45554;51.096;16.976;2024-01-16T12:51:05;10.60;;;5.40;;
59685;SDS011;45554;51.096;16.976;2024-01-16T12:54:43;7.60;;;4.80;;
59685;SDS011;45554;51.096;16.976;2024-01-16T12:58:53;9.10;;;5.70;;
59685;SDS011;45554;51.096;16.976;2024-01-16T13:03:37;8.10;;;5.40;;
59685;SDS011;45554;51.096;16.976;2024-01-16T13:06:48;8.40;;;4.70;;
59685;SDS011;45554;51.096;16.976;2024-01-16T13:11:01;9.70;;;5.40;;
59685;SDS011;45554;51.096;16.976;2024-01-16T13:14:46;8.30;;;4.80;;
59685;SDS011;45554;51.096;16.976;2024-01-16T13:18:22;8.10;;;3.70;;
59685;SDS011;45554;51.096;16.976;2024-01-16T13:21:06;6.80;;;3.80;;
59685;SDS011;45554;51.096;16.976;2024-01-16T13:31:52;7.60;;;4.50;;
59685;SDS011;45554;51.096;16.976;2024-01-16T13:38:53;7.00;;;4.00;;
59685;SDS011;45554;51.096;16.976;2024-01-16T13:41:28;8.50;;;4.40;;
59685;SDS011;45554;51.096;16.976;2024-01-16T13:44:00;8.20;;;4.50;;
59685;SDS011;45554;51.096;16.976;2024-01-16T13:46:58;8.70;;;5.20;;
59685;SDS011;45554;51.096;16.976;2024-01-16T13:49:47;9.00;;;5.40;;
59685;SDS011;45554;51.096;16.976;2024-01-16T13:52:51;9.30;;;5.10;;
59685;SDS011;45554;51.096;16.976;2024-01-16T13:56:10;8.30;;;4.60;;
59685;SDS011;45554;51.096;16.976;2024-01-16T13:58:55;8.70;;;4.90;;
59685;SDS011;45554;51.096;16.976;2024-01-16T14:01:38;11.60;;;7.90;;
59685;SDS011;45554;51.096;16.976;2024-01-16T14:04:06;12.00;;;7.60;;
59685;SDS011;45554;51.096;16.976;2024-01-16T14:06:58;9.90;;;6.30;;
59685;SDS011;45554;51.096;16.976;2024-01-16T14:14:10;12.30;;;6.70;;
59685;SDS011;45554;51.096;16.976;2024-01-16T14:17:18;11.10;;;6.90;;
59685;SDS011;45554;51.096;16.976;2024-01-16T14:20:00;11.00;;;6.20;;
59685;SDS011;45554;51.096;16.976;2024-01-16T14:22:28;10.20;;;6.00;;
59685;SDS011;45554;51.096;16.976;2024-01-16T14:24:56;9.50;;;6.50;;
59685;SDS011;45554;51.096;16.976;2024-01-16T14:27:25;11.00;;;6.90;;
59685;SDS011;45554;51.096;16.976;2024-01-16T14:29:53;10.70;;;6.20;;
59685;SDS011;45554;51.096;16.976;2024-01-16T14:32:22;10.20;;;6.30;;
59685;SDS011;45554;51.096;16.976;2024-01-16T14:34:50;10.50;;;6.70;;
59685;SDS011;45554;51.096;16.976;2024-01-16T14:37:18;10.40;;;7.10;;
59685;SDS011;45554;51.096;16.976;2024-01-16T14:39:49;11.50;;;7.20;;
59685;SDS011;45554;51.096;16.976;2024-01-16T14:42:34;13.50;;;8.10;;
59685;SDS011;45554;51.096;16.976;2024-01-16T14:45:02;11.90;;;7.80;;
59685;SDS011;45554;51.096;16.976;2024-01-16T14:47:33;13.80;;;7.80;;
59685;SDS011;45554;51.096;16.976;2024-01-16T14:50:33;12.00;;;7.90;;
59685;SDS011;45554;51.096;16.976;2024-01-16T14:53:02;12.10;;;7.70;;
59685;SDS011;45554;51.096;16.976;2024-01-16T14:55:32;13.50;;;7.60;;
59685;SDS011;45554;51.096;16.976;2024-01-16T14:58:01;12.90;;;6.90;;
59685;SDS011;45554;51.096;16.976;2024-01-16T15:00:29;10.50;;;6.70;;
59685;SDS011;45554;51.096;16.976;2024-01-16T15:02:58;9.90;;;6.10;;
59685;SDS011;45554;51.096;16.976;2024-01-16T15:07:56;10.30;;;5.90;;
59685;SDS011;45554;51.096;16.976;2024-01-16T15:10:24;10.00;;;6.10;;
59685;SDS011;45554;51.096;16.976;2024-01-16T15:12:52;11.00;;;5.50;;
59685;SDS011;45554;51.096;16.976;2024-01-16T15:15:20;11.90;;;5.80;;
59685;SDS011;45554;51.096;16.976;2024-01-16T15:17:48;12.00;;;6.30;;
59685;SDS011;45554;51.096;16.976;2024-01-16T15:20:19;13.70;;;8.10;;
59685;SDS011;45554;51.096;16.976;2024-01-16T15:22:48;15.70;;;9.90;;
59685;SDS011;45554;51.096;16.976;2024-01-16T15:25:21;22.30;;;13.10;;
59685;SDS011;45554;51.096;16.976;2024-01-16T15:27:51;24.60;;;14.50;;
59685;SDS011;45554;51.096;16.976;2024-01-16T15:30:22;20.40;;;12.50;;
59685;SDS011;45554;51.096;16.976;2024-01-16T15:32:55;21.70;;;14.60;;
59685;SDS011;45554;51.096;16.976;2024-01-16T15:35:23;26.90;;;17.50;;
59685;SDS011;45554;51.096;16.976;2024-01-16T15:37:52;28.60;;;19.60;;
59685;SDS011;45554;51.096;16.976;2024-01-16T15:40:19;22.00;;;13.70;;
59685;SDS011;45554;51.096;16.976;2024-01-16T15:42:48;11.10;;;6.90;;
59685;SDS011;45554;51.096;16.976;2024-01-16T15:45:16;10.10;;;5.90;;
59685;SDS011;45554;51.096;16.976;2024-01-16T15:47:44;10.60;;;6.30;;
59685;SDS011;45554;51.096;16.976;2024-01-16T15:50:12;11.50;;;7.00;;
59685;SDS011;45554;51.096;16.976;2024-01-16T15:55:10;12.80;;;7.00;;
59685;SDS011;45554;51.096;16.976;2024-01-16T15:57:38;13.80;;;7.30;;
59685;SDS011;45554;51.096;16.976;2024-01-16T16:00:07;13.20;;;8.00;;
59685;SDS011;45554;51.096;16.976;2024-01-16T16:02:37;12.80;;;8.40;;
59685;SDS011;45554;51.096;16.976;2024-01-16T16:05:07;14.70;;;10.00;;
59685;SDS011;45554;51.096;16.976;2024-01-16T16:07:35;13.70;;;9.70;;
59685;SDS011;45554;51.096;16.976;2024-01-16T16:10:03;15.30;;;10.40;;
59685;SDS011;45554;51.096;16.976;2024-01-16T16:12:32;28.10;;;17.50;;
59685;SDS011;45554;51.096;16.976;2024-01-16T16:15:00;24.30;;;16.40;;
59685;SDS011;45554;51.096;16.976;2024-01-16T16:17:28;21.40;;;15.20;;
59685;SDS011;45554;51.096;16.976;2024-01-16T16:19:57;19.50;;;12.00;;
59685;SDS011;45554;51.096;16.976;2024-01-16T16:22:24;19.50;;;12.30;;
59685;SDS011;45554;51.096;16.976;2024-01-16T16:24:53;17.70;;;12.00;;
59685;SDS011;45554;51.096;16.976;2024-01-16T16:27:22;21.00;;;13.10;;
59685;SDS011;45554;51.096;16.976;2024-01-16T16:29:52;20.60;;;12.70;;
59685;SDS011;45554;51.096;16.976;2024-01-16T16:32:24;21.90;;;13.80;;